createdAt,value
2017-12-19T19:39:30.255Z,21.77
2017-12-19T19:40:30.232Z,21.77
2017-12-19T19:42:23.109Z,21.74
2017-12-19T19:43:23.096Z,21.80
2017-12-19T19:45:15.981Z,21.83
2017-12-19T19:46:15.956Z,21.81
2017-12-19T19:48:08.841Z,21.77
2017-12-19T19:49:08.828Z,21.77
2017-12-19T19:51:01.690Z,21.78
2017-12-19T19:52:01.678Z,21.77
2017-12-19T19:53:54.561Z,21.80
2017-12-19T19:54:54.539Z,21.72
2017-12-19T19:56:47.418Z,21.80
2017-12-19T19:57:47.408Z,21.80
2017-12-19T19:59:41.275Z,21.84
2017-12-19T20:00:41.252Z,21.78
2017-12-19T20:02:34.131Z,21.81
2017-12-19T20:03:34.119Z,21.85
2017-12-19T20:05:27.008Z,21.81
2017-12-19T20:06:26.984Z,21.75
2017-12-19T20:08:19.872Z,21.84
2017-12-19T20:09:19.850Z,21.84
2017-12-19T20:11:12.725Z,21.88
2017-12-19T20:12:12.714Z,21.80
2017-12-19T20:14:05.599Z,21.85
2017-12-19T20:15:05.577Z,21.81
2017-12-19T20:16:58.471Z,21.92
2017-12-19T20:17:58.451Z,21.91
2017-12-19T20:19:51.337Z,21.92
2017-12-19T20:20:51.313Z,21.91
2017-12-19T20:22:44.192Z,21.91
2017-12-19T20:23:44.179Z,21.88
2017-12-19T20:25:37.062Z,21.85
2017-12-19T20:26:37.040Z,21.88
2017-12-19T20:28:30.916Z,21.88
2017-12-19T20:29:30.891Z,21.88
2017-12-19T20:30:30.881Z,21.88
2017-12-19T20:31:30.876Z,21.91
2017-12-19T20:32:30.868Z,21.92
2017-12-19T20:33:30.860Z,21.91
2017-12-19T20:34:30.851Z,21.89
2017-12-19T20:35:30.845Z,21.89
2017-12-19T20:36:30.837Z,21.83
2017-12-19T20:37:30.829Z,21.78
2017-12-19T20:38:30.820Z,21.80
2017-12-19T20:39:30.814Z,21.85
2017-12-19T20:40:30.806Z,21.85
2017-12-19T20:41:30.798Z,21.83
2017-12-19T20:42:30.789Z,21.83
2017-12-19T20:43:30.784Z,21.83
2017-12-19T20:44:30.775Z,21.84
2017-12-19T20:45:30.771Z,21.89
2017-12-19T20:46:30.762Z,21.80
2017-12-19T20:47:30.752Z,21.83
2017-12-19T20:48:30.744Z,21.80
2017-12-19T20:49:30.736Z,21.84
2017-12-19T20:50:30.730Z,21.78
2017-12-19T20:51:30.721Z,21.80
2017-12-19T20:52:30.714Z,21.85
2017-12-19T20:53:30.706Z,21.78
2017-12-19T20:54:30.700Z,21.80
2017-12-19T20:55:30.690Z,21.78
2017-12-19T20:56:30.682Z,21.77
2017-12-19T20:57:30.674Z,21.75
2017-12-19T20:58:30.667Z,21.80
2017-12-19T20:59:30.660Z,21.78
2017-12-19T21:00:30.652Z,21.84
2017-12-19T21:01:30.643Z,21.83
2017-12-19T21:02:30.638Z,21.85
2017-12-19T21:03:30.629Z,21.81
2017-12-19T21:04:30.621Z,21.77
2017-12-19T21:05:30.616Z,21.84
2017-12-19T21:06:30.604Z,21.89
2017-12-19T21:07:30.597Z,21.83
2017-12-19T21:08:30.590Z,21.89
2017-12-19T21:09:30.583Z,21.89
2017-12-19T21:10:30.576Z,21.80
2017-12-19T21:11:30.565Z,21.85
2017-12-19T21:12:30.561Z,21.89
2017-12-19T21:13:30.552Z,21.84
2017-12-19T21:14:30.542Z,21.84
2017-12-19T21:15:30.536Z,21.88
2017-12-19T21:16:30.529Z,21.84
2017-12-19T21:17:30.520Z,21.83
2017-12-19T21:18:30.512Z,21.83
2017-12-19T21:19:30.505Z,21.88
2017-12-19T21:20:30.497Z,21.83
2017-12-19T21:21:30.496Z,21.88
2017-12-19T21:22:30.481Z,21.83
2017-12-19T21:23:30.473Z,21.85
2017-12-19T21:24:30.466Z,21.89
2017-12-19T21:25:30.465Z,21.83
2017-12-19T21:26:30.450Z,21.81
2017-12-19T21:27:30.443Z,21.83
2017-12-19T21:28:30.436Z,21.78
2017-12-19T21:29:30.429Z,21.83
2017-12-19T21:30:30.419Z,21.81
2017-12-19T21:31:30.412Z,21.89
2017-12-19T21:32:30.405Z,21.96
2017-12-19T21:33:30.397Z,21.83
2017-12-19T21:34:30.389Z,21.84
2017-12-19T21:35:30.382Z,21.80
2017-12-19T21:36:30.374Z,21.89
2017-12-19T21:37:30.367Z,21.89
2017-12-19T21:38:30.357Z,21.85
2017-12-19T21:39:30.351Z,21.84
2017-12-19T21:40:30.342Z,21.88
2017-12-19T21:41:30.338Z,21.92
2017-12-19T21:42:30.326Z,21.92
2017-12-19T21:43:30.319Z,21.88
2017-12-19T21:44:30.315Z,21.94
2017-12-19T21:45:30.346Z,21.85
2017-12-19T21:46:30.296Z,21.85
2017-12-19T21:47:30.289Z,21.91
2017-12-19T21:48:30.281Z,21.85
2017-12-19T21:49:30.273Z,21.84
2017-12-19T21:50:30.266Z,21.88
2017-12-19T21:51:30.281Z,21.85
2017-12-19T21:52:30.316Z,21.75
2017-12-19T21:53:30.567Z,21.81
2017-12-19T21:54:30.234Z,21.85
2017-12-19T21:55:30.227Z,21.83
2017-12-19T21:56:30.220Z,21.80
2017-12-19T21:57:30.212Z,21.89
2017-12-19T21:58:30.203Z,21.85
2017-12-19T21:59:30.199Z,21.85
2017-12-19T22:00:30.192Z,21.84
2017-12-19T22:01:30.181Z,21.83
2017-12-19T22:02:30.173Z,21.81
2017-12-19T22:03:30.247Z,21.83
2017-12-19T22:04:30.160Z,21.84
2017-12-19T22:05:30.151Z,21.83
2017-12-19T22:06:30.142Z,21.89
2017-12-19T22:07:30.134Z,21.85
2017-12-19T22:08:30.128Z,21.88
2017-12-19T22:09:30.202Z,21.84
2017-12-19T22:10:30.168Z,21.80
2017-12-19T22:11:30.102Z,21.85
2017-12-19T22:12:30.097Z,21.80
2017-12-19T22:13:30.088Z,21.85
2017-12-19T22:14:30.399Z,21.81
2017-12-19T22:15:30.078Z,21.85
2017-12-19T22:16:30.064Z,21.80
2017-12-19T22:17:30.058Z,21.80
2017-12-19T22:18:30.049Z,21.83
2017-12-19T22:19:30.052Z,21.78
2017-12-19T22:20:30.035Z,21.80
2017-12-19T22:21:30.027Z,21.75
2017-12-19T22:22:30.018Z,21.77
2017-12-19T22:23:30.015Z,21.81
2017-12-19T22:24:30.007Z,21.77
2017-12-19T22:25:29.995Z,21.80
2017-12-19T22:26:30.038Z,21.74
2017-12-19T22:27:29.981Z,21.75
2017-12-19T22:28:29.972Z,21.72
2017-12-19T22:29:29.964Z,21.78
2017-12-19T22:30:29.956Z,21.75
2017-12-19T22:31:29.949Z,21.69
2017-12-19T22:32:29.941Z,21.78
2017-12-19T22:33:29.935Z,21.72
2017-12-19T22:34:29.925Z,21.81
2017-12-19T22:35:29.917Z,21.80
2017-12-19T22:36:29.910Z,21.75
2017-12-19T22:37:29.902Z,21.77
2017-12-19T22:38:29.893Z,21.72
2017-12-19T22:39:29.888Z,21.74
2017-12-19T22:40:29.879Z,21.75
2017-12-19T22:41:29.870Z,21.68
2017-12-19T22:42:29.862Z,21.63
2017-12-19T22:43:29.909Z,21.68
2017-12-19T22:44:29.847Z,21.69
2017-12-19T22:45:29.840Z,21.68
2017-12-19T22:46:29.833Z,21.66
2017-12-19T22:47:29.823Z,21.66
2017-12-19T22:48:29.817Z,21.69
2017-12-19T22:49:29.816Z,21.68
2017-12-19T22:50:29.801Z,21.65
2017-12-19T22:51:29.792Z,21.69
2017-12-19T22:52:29.785Z,21.68
2017-12-19T22:53:29.777Z,21.66
2017-12-19T22:54:29.774Z,21.60
2017-12-19T22:55:29.758Z,21.56
2017-12-19T22:56:29.760Z,21.51
2017-12-19T22:57:29.747Z,21.53
2017-12-19T22:58:29.740Z,21.51
2017-12-19T22:59:29.730Z,21.45
2017-12-19T23:00:29.726Z,21.41
2017-12-19T23:01:29.718Z,21.43
2017-12-19T23:02:29.710Z,21.38
2017-12-19T23:03:29.703Z,21.45
2017-12-19T23:04:29.697Z,21.45
2017-12-19T23:05:29.689Z,21.37
2017-12-19T23:06:29.685Z,21.38
2017-12-19T23:07:29.703Z,21.33
2017-12-19T23:08:29.668Z,21.29
2017-12-19T23:09:29.662Z,21.37
2017-12-19T23:10:29.654Z,21.26
2017-12-19T23:11:29.643Z,21.30
2017-12-19T23:12:29.641Z,21.25
2017-12-19T23:13:29.638Z,21.28
2017-12-19T23:14:29.628Z,21.28
2017-12-19T23:15:29.617Z,21.28
2017-12-19T23:16:29.612Z,21.23
2017-12-19T23:17:29.607Z,21.23
2017-12-19T23:18:29.601Z,21.26
2017-12-19T23:19:29.592Z,21.25
2017-12-19T23:20:29.583Z,21.23
2017-12-19T23:21:29.580Z,21.23
2017-12-19T23:22:29.571Z,21.19
2017-12-19T23:23:29.565Z,21.19
2017-12-19T23:24:29.557Z,21.17
2017-12-19T23:25:29.562Z,21.23
2017-12-19T23:26:29.544Z,21.19
2017-12-19T23:27:29.537Z,21.15
2017-12-19T23:28:29.559Z,21.19
2017-12-19T23:29:29.524Z,21.25
2017-12-19T23:30:29.531Z,21.20
2017-12-19T23:31:29.510Z,21.15
2017-12-19T23:32:29.504Z,21.20
2017-12-19T23:33:29.502Z,21.22
2017-12-19T23:34:29.492Z,21.20
2017-12-19T23:35:29.484Z,21.20
2017-12-19T23:36:29.476Z,21.19
2017-12-19T23:37:29.469Z,21.22
2017-12-19T23:38:29.463Z,21.20
2017-12-19T23:39:29.468Z,21.20
2017-12-19T23:40:29.451Z,21.20
2017-12-19T23:41:29.445Z,21.19
2017-12-19T23:42:29.436Z,21.11
2017-12-19T23:43:29.427Z,21.23
2017-12-19T23:44:29.421Z,21.17
2017-12-19T23:45:29.417Z,21.25
2017-12-19T23:46:29.409Z,21.15
2017-12-19T23:47:29.403Z,21.20
2017-12-19T23:48:29.396Z,21.17
2017-12-19T23:49:29.389Z,21.17
2017-12-19T23:50:29.384Z,21.17
2017-12-19T23:51:29.377Z,21.22
2017-12-19T23:52:29.370Z,21.22
2017-12-19T23:53:29.363Z,21.19
2017-12-19T23:54:29.356Z,21.14
2017-12-19T23:55:29.349Z,21.20
2017-12-19T23:56:29.343Z,21.20
2017-12-19T23:57:29.338Z,21.23
2017-12-19T23:58:29.330Z,21.17
2017-12-19T23:59:29.323Z,21.20
